createdAt,value
2023-02-03T00:00:36.971Z,1.05
2023-02-03T00:03:22.506Z,1.23
2023-02-03T00:06:08.361Z,0.70
2023-02-03T00:08:59.419Z,1.23
2023-02-03T00:11:44.899Z,1.40
2023-02-03T00:14:30.589Z,1.00
2023-02-03T00:17:15.929Z,1.20
2023-02-03T00:20:01.606Z,0.90
2023-02-03T00:22:47.194Z,1.30
2023-02-03T00:25:33.367Z,1.40
2023-02-03T00:28:19.034Z,1.50
2023-02-03T00:31:04.872Z,1.58
2023-02-03T00:33:56.046Z,1.67
2023-02-03T00:36:43.075Z,2.28
2023-02-03T00:39:29.126Z,1.23
2023-02-03T00:42:14.860Z,1.13
2023-02-03T00:45:00.554Z,1.40
2023-02-03T00:47:45.829Z,1.75
2023-02-03T00:50:31.478Z,1.60
2023-02-03T00:53:17.104Z,1.30
2023-02-03T00:56:02.721Z,1.88
2023-02-03T00:58:48.486Z,1.50
2023-02-03T01:01:38.912Z,1.20
2023-02-03T01:04:24.840Z,1.60
2023-02-03T01:07:10.512Z,1.13
2023-02-03T01:09:56.257Z,1.20
2023-02-03T01:12:41.497Z,1.25
2023-02-03T01:15:26.986Z,1.00
2023-02-03T01:18:12.284Z,1.05
2023-02-03T01:20:57.637Z,1.27
2023-02-03T01:23:43.820Z,1.13
2023-02-03T01:26:29.073Z,1.45
2023-02-03T01:29:14.967Z,1.00
2023-02-03T01:32:00.437Z,1.70
2023-02-03T01:34:45.831Z,1.63
2023-02-03T01:37:31.380Z,1.67
2023-02-03T01:40:16.988Z,1.15
2023-02-03T01:43:03.004Z,1.30
2023-02-03T01:45:48.934Z,1.10
2023-02-03T01:48:35.399Z,0.75
2023-02-03T01:51:22.887Z,1.33
2023-02-03T01:54:12.861Z,1.55
2023-02-03T01:57:23.053Z,1.58
2023-02-03T02:00:10.753Z,1.05
2023-02-03T02:03:00.450Z,1.33
2023-02-03T02:05:53.280Z,1.27
2023-02-03T02:08:40.686Z,1.50
2023-02-03T02:11:26.705Z,1.00
2023-02-03T02:14:12.679Z,0.93
2023-02-03T02:17:11.861Z,1.27
2023-02-03T02:20:06.025Z,1.15
2023-02-03T02:23:22.692Z,1.20
2023-02-03T02:26:08.298Z,1.08
2023-02-03T02:29:13.068Z,1.27
2023-02-03T02:32:10.438Z,0.73
2023-02-03T02:35:03.748Z,0.90
2023-02-03T02:38:27.797Z,0.90
2023-02-03T02:41:19.936Z,1.05
2023-02-03T02:44:17.725Z,1.13
2023-02-03T02:47:10.845Z,1.10
2023-02-03T02:50:07.069Z,1.00
2023-02-03T02:52:54.430Z,0.93
2023-02-03T02:55:42.670Z,0.68
2023-02-03T02:58:32.104Z,1.40
2023-02-03T03:01:17.960Z,0.73
2023-02-03T03:04:07.195Z,0.95
2023-02-03T03:07:22.317Z,0.70
2023-02-03T03:10:12.192Z,0.80
2023-02-03T03:13:07.117Z,0.95
2023-02-03T03:15:54.533Z,0.80
2023-02-03T03:18:50.181Z,1.33
2023-02-03T03:21:51.349Z,0.98
2023-02-03T03:24:56.293Z,1.60
2023-02-03T03:27:57.432Z,0.75
2023-02-03T03:30:44.040Z,0.77
2023-02-03T03:33:29.644Z,1.08
2023-02-03T03:36:32.218Z,0.95
2023-02-03T03:39:28.125Z,1.08
2023-02-03T03:42:31.325Z,1.45
2023-02-03T03:48:38.137Z,0.90
2023-02-03T03:51:48.288Z,1.45
2023-02-03T03:54:37.802Z,0.90
2023-02-03T03:57:30.552Z,1.48
2023-02-03T04:00:19.236Z,0.93
2023-02-03T04:03:14.149Z,1.20
2023-02-03T04:05:59.731Z,1.02
2023-02-03T04:08:45.127Z,0.88
2023-02-03T04:11:49.478Z,0.80
2023-02-03T04:14:39.828Z,1.00
2023-02-03T04:17:25.643Z,0.90
2023-02-03T04:20:11.925Z,1.05
2023-02-03T04:22:58.087Z,0.90
2023-02-03T04:25:43.517Z,0.82
2023-02-03T04:28:29.170Z,0.90
2023-02-03T04:31:14.843Z,0.80
2023-02-03T04:34:00.230Z,1.10
2023-02-03T04:36:45.661Z,1.30
2023-02-03T04:39:31.113Z,1.13
2023-02-03T04:42:16.741Z,1.02
2023-02-03T04:45:02.286Z,1.10
2023-02-03T04:47:54.408Z,1.17
2023-02-03T04:50:40.119Z,0.95
2023-02-03T04:53:25.737Z,1.17
2023-02-03T04:56:11.247Z,1.10
2023-02-03T04:58:56.856Z,1.23
2023-02-03T05:01:42.499Z,1.20
2023-02-03T05:04:27.816Z,2.30
2023-02-03T05:07:13.281Z,1.30
2023-02-03T05:09:58.837Z,1.27
2023-02-03T05:12:44.379Z,1.10
2023-02-03T05:15:29.641Z,1.10
2023-02-03T05:18:15.178Z,1.30
2023-02-03T05:21:00.896Z,1.13
2023-02-03T05:23:46.401Z,1.40
2023-02-03T05:26:31.664Z,1.48
2023-02-03T05:29:17.166Z,1.30
2023-02-03T05:32:02.749Z,1.48
2023-02-03T05:34:48.213Z,1.17
2023-02-03T05:37:33.534Z,1.20
2023-02-03T05:40:37.605Z,1.17
2023-02-03T05:43:23.082Z,1.55
2023-02-03T05:46:08.674Z,1.30
2023-02-03T05:48:54.712Z,1.10
2023-02-03T05:51:40.268Z,1.13
2023-02-03T05:54:25.928Z,1.38
2023-02-03T05:57:12.123Z,1.20
2023-02-03T05:59:57.405Z,1.48
2023-02-03T06:02:43.084Z,1.38
2023-02-03T06:05:29.591Z,1.13
2023-02-03T06:08:14.711Z,1.15
2023-02-03T06:11:01.048Z,1.40
2023-02-03T06:13:47.688Z,1.23
2023-02-03T06:16:33.363Z,1.52
2023-02-03T06:19:18.899Z,1.00
2023-02-03T06:22:04.395Z,2.35
2023-02-03T06:24:50.156Z,0.90
2023-02-03T06:27:35.411Z,1.30
2023-02-03T06:30:21.305Z,0.77
2023-02-03T06:33:06.838Z,0.80
2023-02-03T06:35:53.735Z,1.10
2023-02-03T06:38:39.224Z,0.85
2023-02-03T06:41:28.634Z,1.20
2023-02-03T06:44:13.898Z,1.05
2023-02-03T06:46:59.566Z,1.48
2023-02-03T06:49:45.363Z,0.80
2023-02-03T06:52:31.018Z,1.05
2023-02-03T06:55:16.297Z,1.23
2023-02-03T06:58:01.882Z,0.90
2023-02-03T07:00:47.622Z,1.17
2023-02-03T07:03:33.332Z,1.55
2023-02-03T07:06:18.910Z,1.33
2023-02-03T07:09:06.193Z,1.60
2023-02-03T07:11:51.746Z,1.27
2023-02-03T07:14:39.452Z,1.45
2023-02-03T07:17:24.959Z,1.00
2023-02-03T07:20:11.035Z,1.48
2023-02-03T07:22:58.052Z,1.20
2023-02-03T07:25:43.413Z,1.27
2023-02-03T07:28:28.937Z,1.25
2023-02-03T07:31:15.464Z,0.95
2023-02-03T07:34:01.735Z,1.30
2023-02-03T07:36:47.063Z,1.20
2023-02-03T07:39:33.174Z,2.97
2023-02-03T07:42:18.588Z,1.10
2023-02-03T07:45:04.436Z,1.48
2023-02-03T07:47:49.869Z,1.48
2023-02-03T07:50:35.318Z,1.20
2023-02-03T07:53:22.506Z,1.23
2023-02-03T07:56:07.847Z,0.90
2023-02-03T07:58:53.497Z,1.60
2023-02-03T08:01:39.390Z,1.20
2023-02-03T08:04:25.099Z,1.40
2023-02-03T08:07:10.306Z,2.30
2023-02-03T08:09:55.908Z,1.75
2023-02-03T08:12:45.140Z,1.55
2023-02-03T08:15:30.546Z,1.88
2023-02-03T08:18:16.135Z,1.75
2023-02-03T08:21:03.686Z,1.75
2023-02-03T08:23:49.751Z,2.22
2023-02-03T08:26:37.289Z,1.88
2023-02-03T08:29:22.821Z,2.38
2023-02-03T08:32:13.754Z,2.00
2023-02-03T08:34:59.692Z,1.48
2023-02-03T08:37:45.160Z,1.58
2023-02-03T08:40:31.239Z,1.42
2023-02-03T08:43:17.077Z,1.25
2023-02-03T08:46:04.302Z,1.73
2023-02-03T08:48:49.903Z,2.10
2023-02-03T08:51:35.579Z,1.65
2023-02-03T08:54:22.022Z,2.35
2023-02-03T08:57:08.107Z,1.55
2023-02-03T08:59:54.598Z,1.35
2023-02-03T09:02:40.343Z,1.48
2023-02-03T09:05:25.981Z,1.95
2023-02-03T09:08:11.456Z,1.38
2023-02-03T09:10:56.970Z,1.95
2023-02-03T09:13:46.136Z,1.35
2023-02-03T09:16:32.603Z,1.40
2023-02-03T09:19:19.871Z,1.85
2023-02-03T09:22:05.879Z,2.00
2023-02-03T09:24:51.531Z,1.77
2023-02-03T09:27:37.182Z,1.33
2023-02-03T09:30:22.764Z,1.50
2023-02-03T09:33:08.204Z,1.50
2023-02-03T09:35:55.479Z,1.70
2023-02-03T09:38:40.908Z,1.60
2023-02-03T09:41:38.243Z,1.30
2023-02-03T09:44:35.017Z,1.52
2023-02-03T09:47:28.780Z,1.60
2023-02-03T09:50:21.378Z,2.63
2023-02-03T09:53:26.933Z,2.15
2023-02-03T09:56:30.225Z,1.30
2023-02-03T09:59:16.118Z,1.30
2023-02-03T10:02:20.170Z,1.92
2023-02-03T10:05:22.661Z,1.25
2023-02-03T10:08:16.953Z,1.20
2023-02-03T10:11:29.162Z,1.83
2023-02-03T10:14:43.673Z,1.23
2023-02-03T10:17:39.670Z,1.20
2023-02-03T10:20:51.735Z,1.38
2023-02-03T10:23:41.733Z,2.08
2023-02-03T10:26:34.977Z,1.42
2023-02-03T10:29:43.194Z,1.85
2023-02-03T10:32:31.133Z,1.50
2023-02-03T10:35:47.584Z,1.33
2023-02-03T10:38:54.599Z,1.42
2023-02-03T10:41:41.097Z,1.75
2023-02-03T10:44:36.857Z,1.70
2023-02-03T10:47:35.336Z,1.88
2023-02-03T10:50:24.405Z,2.22
2023-02-03T10:53:47.108Z,1.45
2023-02-03T10:56:58.323Z,1.42
2023-02-03T10:59:50.693Z,1.73
2023-02-03T11:02:37.399Z,1.70
2023-02-03T11:05:26.571Z,1.63
2023-02-03T11:08:40.472Z,1.50
2023-02-03T11:11:26.687Z,1.98
2023-02-03T11:14:17.479Z,1.25
2023-02-03T11:17:37.619Z,1.77
2023-02-03T11:20:29.125Z,2.17
2023-02-03T11:23:23.916Z,1.40
2023-02-03T11:26:15.933Z,2.35
2023-02-03T11:32:17.435Z,1.45
2023-02-03T11:35:14.591Z,1.75
2023-02-03T11:38:09.152Z,1.55
2023-02-03T11:41:04.217Z,2.25
2023-02-03T11:43:49.834Z,1.20
2023-02-03T11:46:41.536Z,1.48
2023-02-03T11:49:47.621Z,1.88
2023-02-03T11:52:53.076Z,1.85
2023-02-03T11:55:59.592Z,1.10
2023-02-03T11:59:47.631Z,1.38
2023-02-03T12:02:56.986Z,1.20
2023-02-03T12:06:19.552Z,1.75
2023-02-03T12:09:17.957Z,2.15
2023-02-03T12:12:14.065Z,1.65
2023-02-03T12:15:05.735Z,1.80
2023-02-03T12:17:54.851Z,1.63
2023-02-03T12:21:17.776Z,1.83
2023-02-03T12:24:21.354Z,1.50
2023-02-03T12:27:34.481Z,1.70
2023-02-03T12:30:52.288Z,1.63
2023-02-03T12:33:46.435Z,1.77
2023-02-03T12:36:42.665Z,1.75
2023-02-03T12:39:39.301Z,1.60
2023-02-03T12:42:31.084Z,1.50
2023-02-03T12:45:29.514Z,1.30
2023-02-03T12:48:20.635Z,1.65
2023-02-03T12:51:13.239Z,1.60
2023-02-03T12:54:11.852Z,1.58
2023-02-03T12:57:08.271Z,1.10
2023-02-03T13:00:45.289Z,1.75
2023-02-03T13:03:42.090Z,1.35
2023-02-03T13:06:49.731Z,1.58
2023-02-03T13:09:44.596Z,1.90
2023-02-03T13:12:44.224Z,1.90
2023-02-03T13:15:40.062Z,1.88
2023-02-03T13:18:34.265Z,1.25
2023-02-03T13:21:19.601Z,1.42
2023-02-03T13:24:06.018Z,1.80
2023-02-03T13:27:19.131Z,1.80
2023-02-03T13:30:22.952Z,1.43
2023-02-03T13:33:31.163Z,2.17
2023-02-03T13:36:53.606Z,2.03
2023-02-03T13:40:02.830Z,1.90
2023-02-03T13:42:58.803Z,1.77
2023-02-03T13:45:50.108Z,2.10
2023-02-03T13:48:36.288Z,2.00
2023-02-03T13:51:25.977Z,1.80
2023-02-03T13:54:21.587Z,1.92
2023-02-03T13:57:24.518Z,1.50
2023-02-03T14:00:43.524Z,1.17
2023-02-03T14:03:28.816Z,1.83
2023-02-03T14:06:40.578Z,2.08
2023-02-03T14:09:34.365Z,2.65
2023-02-03T14:12:34.608Z,1.67
2023-02-03T14:15:26.561Z,1.70
2023-02-03T14:18:43.759Z,1.98
2023-02-03T14:21:43.821Z,1.60
2023-02-03T14:24:38.253Z,2.45
2023-02-03T14:27:28.251Z,1.80
2023-02-03T14:30:19.446Z,1.52
2023-02-03T14:33:07.380Z,1.80
2023-02-03T14:35:54.834Z,1.35
2023-02-03T14:38:42.307Z,1.80
2023-02-03T14:42:08.736Z,1.77
2023-02-03T14:45:15.533Z,1.70
2023-02-03T14:48:33.676Z,1.77
2023-02-03T14:51:40.407Z,1.83
2023-02-03T14:54:54.031Z,1.40
2023-02-03T14:57:49.643Z,1.55
2023-02-03T15:00:36.653Z,1.63
2023-02-03T15:03:25.679Z,1.65
2023-02-03T15:06:44.650Z,1.65
2023-02-03T15:09:48.509Z,2.17
2023-02-03T15:15:27.687Z,1.65
2023-02-03T15:18:27.786Z,1.70
2023-02-03T15:21:20.429Z,1.52
2023-02-03T15:24:15.810Z,1.52
2023-02-03T15:27:01.953Z,1.80
2023-02-03T15:29:47.669Z,1.83
2023-02-03T15:32:41.827Z,1.75
2023-02-03T15:35:32.176Z,1.80
2023-02-03T15:38:27.486Z,2.25
2023-02-03T15:41:23.706Z,1.70
2023-02-03T15:44:27.118Z,1.60
2023-02-03T15:47:46.377Z,1.73
2023-02-03T15:50:37.916Z,1.65
2023-02-03T15:53:46.724Z,1.73
2023-02-03T15:56:38.142Z,2.65
2023-02-03T15:59:35.521Z,2.53
2023-02-03T16:02:27.345Z,1.77
2023-02-03T16:05:26.640Z,2.33
2023-02-03T16:08:52.095Z,2.47
2023-02-03T16:11:38.948Z,1.73
2023-02-03T16:14:36.385Z,2.03
2023-02-03T16:17:33.913Z,1.92
2023-02-03T16:20:19.620Z,2.17
2023-02-03T16:23:28.020Z,2.30
2023-02-03T16:26:13.628Z,2.80
2023-02-03T16:29:27.059Z,2.22
2023-02-03T16:32:37.315Z,2.40
2023-02-03T16:35:42.041Z,2.65
2023-02-03T16:38:45.994Z,2.97
2023-02-03T16:41:52.373Z,2.35
2023-02-03T16:44:56.619Z,2.85
2023-02-03T16:48:02.630Z,2.33
2023-02-03T16:50:56.337Z,3.00
2023-02-03T16:53:48.684Z,2.75
2023-02-03T16:56:36.730Z,3.28
2023-02-03T16:59:24.889Z,2.42
2023-02-03T17:02:13.304Z,2.45
2023-02-03T17:04:59.264Z,3.20
2023-02-03T17:07:45.422Z,3.08
2023-02-03T17:10:33.009Z,3.00
2023-02-03T17:13:21.545Z,2.80
2023-02-03T17:16:19.566Z,3.28
2023-02-03T17:19:05.397Z,3.50
2023-02-03T17:21:51.688Z,4.47
2023-02-03T17:24:37.548Z,3.80
2023-02-03T17:27:23.069Z,3.90
2023-02-03T17:30:08.914Z,3.53
2023-02-03T17:32:54.718Z,3.30
2023-02-03T17:35:43.473Z,3.75
2023-02-03T17:38:30.604Z,3.97
2023-02-03T17:53:39.079Z,3.10
2023-02-03T17:56:26.352Z,3.20
2023-02-03T17:59:12.552Z,2.83
2023-02-03T18:01:58.737Z,2.70
2023-02-03T18:04:44.985Z,3.15
2023-02-03T18:07:31.456Z,2.63
2023-02-03T18:10:20.740Z,2.80
2023-02-03T18:13:07.411Z,2.90
2023-02-03T18:15:56.952Z,2.50
2023-02-03T18:18:43.756Z,2.70
2023-02-03T18:21:32.342Z,2.47
2023-02-03T18:24:27.722Z,2.50
2023-02-03T18:27:17.254Z,2.80
2023-02-03T18:30:03.748Z,3.67
2023-02-03T18:32:52.703Z,2.67
2023-02-03T18:35:38.230Z,2.70
2023-02-03T18:38:25.456Z,2.63
2023-02-03T18:41:16.962Z,2.60
2023-02-03T18:44:02.564Z,3.05
2023-02-03T18:46:48.151Z,3.35
2023-02-03T18:49:35.672Z,2.95
2023-02-03T18:52:20.934Z,2.47
2023-02-03T18:55:06.881Z,2.20
2023-02-03T18:57:52.644Z,2.63
2023-02-03T19:00:38.633Z,3.25
2023-02-03T19:03:25.579Z,2.22
2023-02-03T19:06:14.924Z,2.53
2023-02-03T19:09:05.861Z,2.20
2023-02-03T19:11:51.655Z,2.47
2023-02-03T19:14:37.326Z,2.28
2023-02-03T19:17:23.510Z,2.60
2023-02-03T19:20:09.585Z,2.08
2023-02-03T19:22:56.725Z,2.65
2023-02-03T19:25:42.172Z,2.15
2023-02-03T19:28:30.773Z,2.38
2023-02-03T19:31:17.018Z,2.42
2023-02-03T19:34:03.144Z,2.72
2023-02-03T19:36:48.816Z,2.92
2023-02-03T19:39:35.180Z,2.10
2023-02-03T19:42:20.370Z,2.53
2023-02-03T19:45:06.654Z,3.03
2023-02-03T19:47:52.552Z,2.22
2023-02-03T19:50:41.016Z,2.28
2023-02-03T19:53:26.943Z,2.03
2023-02-03T19:56:13.663Z,2.60
2023-02-03T19:58:59.353Z,2.75
2023-02-03T20:01:44.672Z,2.72
2023-02-03T20:04:30.013Z,2.42
2023-02-03T20:07:16.852Z,2.47
2023-02-03T20:10:02.801Z,2.47
2023-02-03T20:12:48.662Z,2.40
2023-02-03T20:15:34.372Z,2.50
2023-02-03T20:18:20.099Z,4.68
2023-02-03T20:21:05.773Z,3.53
2023-02-03T20:23:51.776Z,3.60
2023-02-03T20:26:40.584Z,3.95
2023-02-03T20:29:26.133Z,3.80
2023-02-03T20:32:11.742Z,3.85
2023-02-03T20:34:57.761Z,3.97
2023-02-03T20:37:43.510Z,3.97
2023-02-03T20:40:29.892Z,4.53
2023-02-03T20:43:23.050Z,3.72
2023-02-03T20:46:13.420Z,3.47
2023-02-03T20:48:58.747Z,3.85
2023-02-03T20:51:44.476Z,3.80
2023-02-03T20:54:30.287Z,4.57
2023-02-03T20:57:18.339Z,5.32
2023-02-03T21:00:14.789Z,4.95
2023-02-03T21:03:18.771Z,5.40
2023-02-03T21:06:16.744Z,6.03
2023-02-03T21:09:16.239Z,6.75
2023-02-03T21:12:02.043Z,7.38
2023-02-03T21:14:53.106Z,6.55
2023-02-03T21:17:38.954Z,6.35
2023-02-03T21:20:28.929Z,5.80
2023-02-03T21:23:14.380Z,5.38
2023-02-03T21:26:10.746Z,5.88
2023-02-03T21:28:59.458Z,5.32
2023-02-03T21:31:45.368Z,8.52
2023-02-03T21:34:33.275Z,6.43
2023-02-03T21:37:39.264Z,6.65
2023-02-03T21:40:28.999Z,5.70
2023-02-03T21:43:18.421Z,6.10
2023-02-03T21:46:03.694Z,6.22
2023-02-03T21:49:01.171Z,5.85
2023-02-03T21:51:46.962Z,5.88
2023-02-03T21:54:33.938Z,5.68
2023-02-03T21:57:21.569Z,5.93
2023-02-03T22:00:40.074Z,5.82
2023-02-03T22:03:27.121Z,7.25
2023-02-03T22:06:12.572Z,5.80
2023-02-03T22:08:59.138Z,6.72
2023-02-03T22:11:50.276Z,6.07
2023-02-03T22:14:39.752Z,7.45
2023-02-03T22:17:29.612Z,6.88
2023-02-03T22:20:18.023Z,7.43
2023-02-03T22:23:04.075Z,7.10
2023-02-03T22:25:51.735Z,7.53
2023-02-03T22:28:38.893Z,7.40
2023-02-03T22:31:24.506Z,9.52
2023-02-03T22:34:10.475Z,8.40
2023-02-03T22:36:56.018Z,6.88
2023-02-03T22:39:41.544Z,6.70
2023-02-03T22:42:27.436Z,7.20
2023-02-03T22:45:14.426Z,7.18
2023-02-03T22:48:00.693Z,6.93
2023-02-03T22:50:46.793Z,7.30
2023-02-03T22:53:33.143Z,7.28
2023-02-03T22:56:19.647Z,7.55
2023-02-03T22:59:05.273Z,7.18
2023-02-03T23:01:52.978Z,7.13
2023-02-03T23:04:38.693Z,7.07
2023-02-03T23:07:24.408Z,6.65
2023-02-03T23:10:12.857Z,8.73
2023-02-03T23:13:00.775Z,9.45
2023-02-03T23:15:46.595Z,9.02
2023-02-03T23:18:32.375Z,9.75
2023-02-03T23:21:17.790Z,10.20
2023-02-03T23:24:04.155Z,7.53
2023-02-03T23:26:49.509Z,7.15
2023-02-03T23:29:37.892Z,7.10
2023-02-03T23:32:23.756Z,7.40
2023-02-03T23:35:32.796Z,7.57
2023-02-03T23:38:18.598Z,6.95
2023-02-03T23:41:04.206Z,7.85
2023-02-03T23:43:49.711Z,7.43
2023-02-03T23:46:35.374Z,6.72
2023-02-03T23:49:21.028Z,7.57
2023-02-03T23:52:06.747Z,8.65
2023-02-03T23:54:52.495Z,8.57
2023-02-03T23:57:38.349Z,7.85
